Time;durP1;ratioP1;P1;durP2;ratioP2;P2;SDS_P1;SDS_P2;PMS_P1;PMS_P2;Temp;Humidity;BMP_temperature;BMP_pressure;BME280_temperature;BME280_humidity;BME280_pressure;Samples;Min_cycle;Max_cycle;Signal;HPM_P1;HPM_P2
2023/10/12 00:00:33;;;;;;;13.50;12.70;;;21.40;72.60;;;;;;4866190;29;20179;-41
2023/10/12 00:02:59;;;;;;;14.10;13.17;;;21.40;73.00;;;;;;4865628;29;21207;-45
2023/10/12 00:05:28;;;;;;;15.23;14.13;;;21.40;72.90;;;;;;4866860;29;20420;-39
2023/10/12 00:07:55;;;;;;;13.73;12.77;;;21.40;72.30;;;;;;4865647;29;20250;-40
2023/10/12 00:10:21;;;;;;;14.37;13.40;;;21.40;72.30;;;;;;4866628;29;20452;-43
2023/10/12 00:12:50;;;;;;;14.07;13.10;;;21.40;72.50;;;;;;4864559;29;20448;-41
2023/10/12 00:17:56;;;;;;;14.23;13.10;;;21.40;71.50;;;;;;4866081;29;20460;-42
2023/10/12 00:20:35;;;;;;;14.10;13.10;;;21.40;71.40;;;;;;4866397;29;20966;-40
2023/10/12 00:23:13;;;;;;;14.23;13.23;;;21.40;71.50;;;;;;4865311;29;20432;-44
2023/10/12 00:25:58;;;;;;;14.20;13.20;;;21.40;71.60;;;;;;4865539;29;20439;-40
2023/10/12 00:28:36;;;;;;;13.60;12.70;;;21.40;71.40;;;;;;4866018;29;20431;-40
2023/10/12 00:31:06;;;;;;;14.13;12.97;;;21.30;72.00;;;;;;4865651;29;20522;-39
2023/10/12 00:33:32;;;;;;;13.80;12.90;;;21.40;72.70;;;;;;4865123;29;20503;-43
2023/10/12 00:36:04;;;;;;;13.27;12.47;;;21.30;72.70;;;;;;4866188;29;20472;-40
2023/10/12 00:38:30;;;;;;;13.90;13.00;;;21.30;72.80;;;;;;4865467;29;20394;-43
2023/10/12 00:40:58;;;;;;;14.47;13.40;;;21.20;72.70;;;;;;4869780;29;20519;-40
2023/10/12 00:43:32;;;;;;;14.27;13.37;;;21.20;73.30;;;;;;4868569;29;20508;-45
2023/10/12 00:45:59;;;;;;;14.17;13.27;;;21.20;73.40;;;;;;4868448;29;20447;-40
2023/10/12 00:48:30;;;;;;;14.30;13.20;;;21.10;74.80;;;;;;4868130;29;20443;-40
2023/10/12 00:50:56;;;;;;;14.53;13.37;;;21.10;73.80;;;;;;4869888;29;20736;-42
2023/10/12 00:53:31;;;;;;;13.07;12.30;;;21.00;74.20;;;;;;4868513;29;20448;-40
2023/10/12 00:55:57;;;;;;;14.37;13.37;;;21.00;74.90;;;;;;4867913;29;20558;-41
2023/10/12 00:58:23;;;;;;;13.40;12.60;;;21.00;74.50;;;;;;4869655;29;20463;-40
2023/10/12 01:00:51;;;;;;;14.20;13.30;;;21.00;75.80;;;;;;4869049;29;20427;-40
2023/10/12 01:08:42;;;;;;;14.43;13.33;;;20.90;74.50;;;;;;4868590;29;20875;-40
2023/10/12 01:11:18;;;;;;;14.00;13.10;;;20.90;74.70;;;;;;4869226;29;20467;-40
2023/10/12 01:13:49;;;;;;;14.23;13.23;;;20.90;74.60;;;;;;4867593;29;20804;-43
2023/10/12 01:16:22;;;;;;;14.13;13.30;;;20.80;75.00;;;;;;4868619;29;20562;-43
2023/10/12 01:18:55;;;;;;;15.17;13.80;;;20.80;75.30;;;;;;4869034;29;20417;-40
2023/10/12 01:21:21;;;;;;;14.20;13.30;;;20.80;76.00;;;;;;4868940;29;20476;-42
2023/10/12 01:23:50;;;;;;;14.30;13.40;;;20.70;77.80;;;;;;4867218;29;20443;-40
2023/10/12 01:26:18;;;;;;;14.03;13.10;;;20.70;76.90;;;;;;4868974;29;20788;-40
2023/10/12 01:28:49;;;;;;;14.40;13.50;;;20.70;76.80;;;;;;4868585;29;20437;-44
2023/10/12 01:31:18;;;;;;;14.43;13.43;;;20.60;78.30;;;;;;4868491;29;20478;-41
2023/10/12 01:33:44;;;;;;;14.30;13.40;;;20.60;77.20;;;;;;4869111;29;20421;-40
2023/10/12 01:36:11;;;;;;;14.40;13.40;;;20.70;76.80;;;;;;4868995;29;21165;-40
2023/10/12 01:38:37;;;;;;;14.20;13.30;;;20.80;76.60;;;;;;4868895;29;20176;-40
2023/10/12 01:41:09;;;;;;;13.30;12.50;;;20.90;75.80;;;;;;4868012;29;20480;-42
2023/10/12 01:43:35;;;;;;;14.00;13.00;;;20.90;76.20;;;;;;4868656;29;20437;-41
2023/10/12 01:46:08;;;;;;;13.87;13.00;;;20.90;75.90;;;;;;4868195;29;21138;-41
2023/10/12 01:48:34;;;;;;;15.10;13.67;;;20.90;76.60;;;;;;4868448;29;20508;-41
2023/10/12 01:51:11;;;;;;;14.73;13.63;;;20.90;76.20;;;;;;4867397;29;20448;-41
2023/10/12 01:53:37;;;;;;;14.30;13.33;;;21.00;75.90;;;;;;4868059;29;20870;-44
2023/10/12 01:56:09;;;;;;;13.93;12.93;;;21.00;75.30;;;;;;4868741;29;20475;-43
2023/10/12 01:58:35;;;;;;;15.00;13.90;;;21.10;75.20;;;;;;4868490;29;20420;-42
2023/10/12 02:01:07;;;;;;;14.47;13.50;;;21.10;75.60;;;;;;4867857;29;20519;-39
2023/10/12 02:03:42;;;;;;;13.83;12.93;;;21.00;75.40;;;;;;4868424;29;20420;-41
2023/10/12 02:06:13;;;;;;;13.43;12.43;;;21.10;76.10;;;;;;4867335;29;20867;-39
2023/10/12 02:08:40;;;;;;;14.27;13.27;;;21.10;75.60;;;;;;4868365;29;20534;-39
2023/10/12 02:11:11;;;;;;;15.00;13.90;;;21.00;76.20;;;;;;4867201;29;20531;-40
2023/10/12 02:13:38;;;;;;;14.53;13.40;;;21.10;75.80;;;;;;4866950;29;20893;-39
2023/10/12 02:16:06;;;;;;;13.63;12.83;;;21.00;76.30;;;;;;4868505;29;20718;-41
2023/10/12 02:18:32;;;;;;;14.83;13.73;;;20.90;77.90;;;;;;4868028;29;20842;-39
2023/10/12 02:21:07;;;;;;;13.80;12.80;;;20.90;78.10;;;;;;4867715;29;21032;-42
2023/10/12 02:23:54;;;;;;;14.57;13.37;;;20.80;78.30;;;;;;4867545;29;20443;-43
2023/10/12 02:34:19;;;;;;;13.53;12.73;;;20.70;81.00;;;;;;4867286;29;21019;-40
2023/10/12 02:39:41;;;;;;;14.37;13.07;;;20.80;81.90;;;;;;4867987;29;20548;-44
2023/10/12 02:42:17;;;;;;;14.30;13.37;;;20.70;81.70;;;;;;4866490;29;21038;-40
2023/10/12 02:47:17;;;;;;;14.33;13.20;;;20.80;82.20;;;;;;4867798;29;20743;-40
2023/10/12 02:49:43;;;;;;;14.93;13.80;;;20.90;83.20;;;;;;4867582;29;20785;-40
2023/10/12 02:52:10;;;;;;;14.67;13.67;;;20.80;81.30;;;;;;4866829;29;20440;-44
2023/10/12 02:54:51;;;;;;;13.73;12.73;;;20.90;81.80;;;;;;4865969;29;20210;-42
2023/10/12 02:57:25;;;;;;;14.17;13.07;;;20.90;81.90;;;;;;4867066;29;21020;-49
2023/10/12 03:00:00;;;;;;;15.30;13.97;;;20.90;81.70;;;;;;4865556;29;20467;-40
2023/10/12 03:02:32;;;;;;;14.10;13.20;;;20.90;82.20;;;;;;4866231;29;20427;-41
2023/10/12 03:05:00;;;;;;;14.13;13.13;;;21.00;81.30;;;;;;4865623;29;20547;-44
2023/10/12 03:07:27;;;;;;;14.40;13.10;;;20.90;80.60;;;;;;4865992;29;20978;-45
2023/10/12 03:09:56;;;;;;;13.73;12.83;;;21.00;81.10;;;;;;4865894;29;20894;-41
2023/10/12 03:12:23;;;;;;;13.40;12.40;;;21.00;81.70;;;;;;4865081;29;20438;-40
2023/10/12 03:14:52;;;;;;;13.87;13.00;;;21.10;79.90;;;;;;4865849;29;20455;-40
2023/10/12 03:17:20;;;;;;;13.57;12.60;;;21.00;80.00;;;;;;4867321;29;20485;-40
2023/10/12 03:19:55;;;;;;;13.30;12.33;;;21.10;80.40;;;;;;4865505;29;20435;-46
2023/10/12 03:22:34;;;;;;;14.47;13.30;;;21.10;80.00;;;;;;4866117;29;20447;-40
2023/10/12 03:25:19;;;;;;;14.73;13.63;;;21.10;81.10;;;;;;4866461;29;20450;-40
2023/10/12 03:27:50;;;;;;;14.10;13.10;;;21.20;79.90;;;;;;4866477;29;20440;-40
2023/10/12 03:30:17;;;;;;;13.37;12.37;;;21.20;80.20;;;;;;4865737;29;20503;-39
2023/10/12 03:32:44;;;;;;;12.90;12.00;;;21.30;79.60;;;;;;4867346;29;20435;-40
2023/10/12 03:35:13;;;;;;;14.30;13.33;;;21.30;79.50;;;;;;4866353;29;20868;-39
2023/10/12 03:38:00;;;;;;;13.70;12.70;;;21.20;79.40;;;;;;4865407;29;20467;-40
2023/10/12 03:43:26;;;;;;;14.30;13.20;;;21.30;78.50;;;;;;4866525;29;20455;-40
2023/10/12 03:48:48;;;;;;;13.70;12.60;;;21.40;78.20;;;;;;4866501;29;20412;-40
2023/10/12 03:51:25;;;;;;;13.57;12.60;;;21.40;78.60;;;;;;4865875;29;20440;-39
2023/10/12 03:53:56;;;;;;;13.27;12.47;;;21.40;79.00;;;;;;4866521;29;20420;-39
2023/10/12 03:56:28;;;;;;;13.23;12.50;;;21.40;79.60;;;;;;4866001;29;20663;-39
2023/10/12 03:59:06;;;;;;;13.37;12.17;;;21.40;79.10;;;;;;4864938;29;20572;-40
2023/10/12 04:01:35;;;;;;;13.20;12.30;;;21.50;78.10;;;;;;4865269;29;20924;-43
2023/10/12 04:04:09;;;;;;;13.93;12.93;;;21.40;77.80;;;;;;4866252;29;20428;-39
2023/10/12 04:09:31;;;;;;;13.10;12.30;;;21.40;77.90;;;;;;4866280;29;20829;-40
2023/10/12 04:12:18;;;;;;;13.47;12.57;;;21.50;78.20;;;;;;4865249;29;20439;-40
2023/10/12 04:14:43;;;;;;;13.37;12.57;;;21.40;78.30;;;;;;4865274;29;20424;-42
2023/10/12 04:17:21;;;;;;;14.43;13.43;;;21.40;79.40;;;;;;4866349;29;20490;-42
2023/10/12 04:20:12;;;;;;;13.20;12.20;;;21.40;79.30;;;;;;4865895;29;20820;-40
2023/10/12 04:28:10;;;;;;;12.40;11.63;;;21.30;79.70;;;;;;4865491;29;22246;-43
2023/10/12 04:33:24;;;;;;;13.80;12.80;;;21.20;80.50;;;;;;4866871;29;20472;-41
2023/10/12 04:41:24;;;;;;;12.50;11.60;;;21.10;81.00;;;;;;4866935;29;20476;-40
2023/10/12 04:43:39;;;;;;;11.90;11.10;;;21.10;80.90;;;;;;4865849;29;20444;-39
2023/10/12 04:48:43;;;;;;;13.90;12.80;;;21.10;81.10;;;;;;4866660;29;20436;-43
2023/10/12 04:51:18;;;;;;;13.27;12.27;;;21.10;81.50;;;;;;4865609;29;20447;-41
2023/10/12 04:53:57;;;;;;;13.90;12.70;;;21.10;82.90;;;;;;4866018;29;20999;-40
2023/10/12 04:56:26;;;;;;;13.10;12.40;;;21.10;82.10;;;;;;4866162;29;20467;-42
2023/10/12 04:59:02;;;;;;;13.50;12.70;;;21.00;82.90;;;;;;4864780;29;20499;-49
2023/10/12 05:01:41;;;;;;;13.27;12.27;;;20.90;82.70;;;;;;4864155;29;20527;-40
2023/10/12 05:06:35;;;;;;;14.33;13.03;;;20.70;84.50;;;;;;4865991;29;20814;-40
2023/10/12 05:09:10;;;;;;;13.37;12.37;;;20.70;85.40;;;;;;4864756;29;20192;-42
2023/10/12 05:11:36;;;;;;;13.87;13.03;;;20.70;85.70;;;;;;4863467;29;20784;-39
2023/10/12 05:14:11;;;;;;;13.33;12.57;;;20.60;86.40;;;;;;4865606;29;20424;-40
2023/10/12 05:16:42;;;;;;;14.27;13.40;;;20.70;86.20;;;;;;4863431;29;20472;-39
2023/10/12 05:19:11;;;;;;;12.83;11.93;;;20.70;86.50;;;;;;4864765;29;20444;-39
2023/10/12 05:21:39;;;;;;;14.03;12.90;;;20.50;87.30;;;;;;4865184;29;20436;-42
2023/10/12 05:24:05;;;;;;;13.33;12.43;;;20.50;88.20;;;;;;4865660;29;20412;-40
2023/10/12 05:26:31;;;;;;;15.07;13.90;;;20.40;89.30;;;;;;4867453;29;21215;-43
2023/10/12 05:31:48;;;;;;;15.20;14.00;;;20.40;90.50;;;;;;4867521;29;20194;-39
2023/10/12 05:37:08;;;;;;;13.87;12.87;;;20.30;91.20;;;;;;4868389;29;21378;-41
2023/10/12 05:39:42;;;;;;;13.90;13.00;;;20.30;91.20;;;;;;4867540;29;20483;-39
2023/10/12 05:42:08;;;;;;;14.63;13.73;;;20.30;91.30;;;;;;4867815;29;20444;-39
2023/10/12 05:44:34;;;;;;;14.87;13.87;;;20.30;91.60;;;;;;4868673;29;20424;-39
2023/10/12 05:47:00;;;;;;;13.70;12.90;;;20.30;91.90;;;;;;4868465;29;20271;-40
2023/10/12 05:49:26;;;;;;;14.83;13.63;;;20.20;92.80;;;;;;4867253;29;20188;-39
2023/10/12 05:51:51;;;;;;;13.67;12.87;;;20.20;92.70;;;;;;4867120;29;20500;-44
2023/10/12 05:54:20;;;;;;;14.50;13.40;;;20.20;92.80;;;;;;4868066;29;20464;-39
2023/10/12 05:56:49;;;;;;;15.50;14.20;;;20.30;92.10;;;;;;4868549;29;20558;-43
2023/10/12 05:59:14;;;;;;;13.20;12.40;;;20.30;92.60;;;;;;4866514;29;20748;-40
2023/10/12 06:01:46;;;;;;;13.77;12.90;;;20.30;92.30;;;;;;4866844;29;20751;-39
2023/10/12 06:04:14;;;;;;;13.83;12.83;;;20.30;92.30;;;;;;4867632;29;20188;-44
2023/10/12 06:06:42;;;;;;;13.67;12.77;;;20.30;92.60;;;;;;4867840;29;20956;-39
2023/10/12 06:09:36;;;;;;;13.70;12.90;;;20.40;92.30;;;;;;4867077;29;20448;-39
2023/10/12 06:12:06;;;;;;;13.80;12.90;;;20.50;92.20;;;;;;4867211;29;20856;-41
2023/10/12 06:14:32;;;;;;;13.43;12.50;;;20.50;92.60;;;;;;4867464;29;20431;-45
2023/10/12 06:16:59;;;;;;;14.07;13.07;;;20.40;92.90;;;;;;4866864;29;20476;-38
2023/10/12 06:19:26;;;;;;;13.80;12.80;;;20.50;92.10;;;;;;4867679;29;20503;-39
2023/10/12 06:21:52;;;;;;;14.97;14.00;;;20.50;92.40;;;;;;4866583;29;20476;-40
2023/10/12 06:24:33;;;;;;;14.23;13.30;;;20.60;92.20;;;;;;4867672;29;20191;-40
2023/10/12 06:27:00;;;;;;;13.53;12.70;;;20.50;92.00;;;;;;4866676;29;20412;-40
2023/10/12 06:29:26;;;;;;;14.00;13.10;;;20.40;92.70;;;;;;4867682;29;20420;-40
2023/10/12 06:31:54;;;;;;;12.00;11.10;;;20.40;92.90;;;;;;4867051;29;20896;-43
2023/10/12 06:34:23;;;;;;;13.83;12.77;;;20.40;93.20;;;;;;4867326;29;20421;-40
2023/10/12 06:36:57;;;;;;;14.70;13.50;;;20.50;92.40;;;;;;4866571;29;20970;-43
2023/10/12 06:41:58;;;;;;;14.17;12.87;;;20.60;92.10;;;;;;4867541;29;20421;-39
2023/10/12 06:44:26;;;;;;;15.93;14.30;;;20.70;91.90;;;;;;4867585;29;20416;-40
2023/10/12 06:46:53;;;;;;;15.50;14.40;;;20.70;92.10;;;;;;4866609;29;20489;-40
2023/10/12 06:49:24;;;;;;;14.23;13.17;;;20.70;92.10;;;;;;4866531;29;20447;-39
2023/10/12 06:52:01;;;;;;;14.00;13.07;;;20.80;91.60;;;;;;4867032;29;20471;-40
2023/10/12 06:54:32;;;;;;;14.70;13.63;;;20.80;91.80;;;;;;4866709;29;21137;-41
2023/10/12 07:02:29;;;;;;;14.10;13.20;;;20.90;91.70;;;;;;4863617;29;20436;-42
2023/10/12 07:05:00;;;;;;;14.00;13.00;;;21.00;91.90;;;;;;4865789;29;20446;-47
2023/10/12 07:07:36;;;;;;;13.90;12.90;;;21.00;91.30;;;;;;4866072;29;20432;-42
2023/10/12 07:12:47;;;;;;;14.57;13.37;;;21.00;92.20;;;;;;4866319;29;20424;-42
2023/10/12 07:15:20;;;;;;;15.33;14.33;;;20.90;96.80;;;;;;4866886;29;20527;-42
2023/10/12 07:17:49;;;;;;;15.17;14.27;;;20.60;98.50;;;;;;4864269;29;20977;-44
2023/10/12 07:20:40;;;;;;;15.90;14.90;;;20.30;99.90;;;;;;4866612;29;20425;-42
2023/10/12 07:23:14;;;;;;;15.70;14.27;;;20.00;99.90;;;;;;4866605;29;20883;-43
2023/10/12 07:25:57;;;;;;;14.97;13.90;;;19.70;99.90;;;;;;4865169;29;20416;-41
2023/10/12 07:28:32;;;;;;;14.33;13.30;;;19.60;99.90;;;;;;4865959;29;20491;-42
2023/10/12 07:33:59;;;;;;;14.60;13.50;;;19.50;99.90;;;;;;4865487;29;20450;-42
2023/10/12 07:41:41;;;;;;;14.90;13.90;;;19.40;99.90;;;;;;4866561;29;20590;-41
2023/10/12 07:44:10;;;;;;;13.70;12.80;;;19.30;99.90;;;;;;4865473;29;20423;-39
2023/10/12 07:46:36;;;;;;;14.70;13.60;;;19.30;99.90;;;;;;4865211;29;20823;-41
2023/10/12 07:57:15;;;;;;;15.50;14.40;;;19.10;99.90;;;;;;4865646;29;20596;-39
2023/10/12 07:59:49;;;;;;;16.30;15.30;;;19.00;99.90;;;;;;4862969;29;20747;-40
2023/10/12 08:02:15;;;;;;;16.40;15.30;;;18.80;99.90;;;;;;4866847;29;20440;-39
2023/10/12 08:04:58;;;;;;;17.40;16.10;;;18.70;99.90;;;;;;4866442;29;20428;-40
2023/10/12 08:07:27;;;;;;;17.97;16.67;;;18.60;99.90;;;;;;4860112;29;21019;-39
2023/10/12 08:10:08;;;;;;;17.27;16.17;;;18.60;99.90;;;;;;4864186;29;20448;-39
2023/10/12 08:12:36;;;;;;;17.43;16.33;;;18.50;99.90;;;;;;4865264;29;20921;-39
2023/10/12 08:15:09;;;;;;;17.77;16.57;;;18.40;99.90;;;;;;4864304;29;20452;-39
2023/10/12 08:17:35;;;;;;;18.47;17.10;;;18.30;99.90;;;;;;4862713;29;20476;-39
2023/10/12 08:22:46;;;;;;;17.60;16.40;;;18.20;99.90;;;;;;4865825;29;20455;-40
2023/10/12 08:25:14;;;;;;;19.00;17.70;;;18.20;99.90;;;;;;4863764;29;20456;-39
2023/10/12 08:28:35;;;;;;;19.17;17.80;;;18.20;99.90;;;;;;4862869;29;20344;-45
2023/10/12 08:30:48;;;;;;;19.10;17.50;;;18.20;99.90;;;;;;4858542;29;20436;-40
2023/10/12 08:33:14;;;;;;;18.10;16.93;;;18.10;99.90;;;;;;4863028;29;20432;-43
2023/10/12 08:36:17;;;;;;;18.23;16.83;;;18.10;99.90;;;;;;4861942;29;20451;-40
2023/10/12 08:38:40;;;;;;;18.13;16.67;;;18.10;99.90;;;;;;4865863;29;20463;-40
2023/10/12 08:41:21;;;;;;;18.57;17.13;;;18.20;99.90;;;;;;4865527;29;20498;-42
2023/10/12 08:43:48;;;;;;;16.90;15.77;;;18.20;99.90;;;;;;4865719;29;20440;-40
2023/10/12 08:46:48;;;;;;;17.60;16.40;;;18.30;99.90;;;;;;4860841;29;20527;-40
2023/10/12 08:52:18;;;;;;;17.83;16.43;;;18.50;99.90;;;;;;4853063;29;20424;-39
2023/10/12 08:54:51;;;;;;;17.77;16.23;;;18.50;99.90;;;;;;4865172;29;20661;-41
2023/10/12 08:57:33;;;;;;;17.40;15.97;;;18.60;99.90;;;;;;4862333;29;20791;-40
2023/10/12 09:01:07;;;;;;;17.20;16.00;;;18.70;99.90;;;;;;4866115;29;20428;-40
2023/10/12 09:03:00;;;;;;;16.33;14.97;;;18.70;99.90;;;;;;4868512;29;20428;-40
2023/10/12 09:05:30;;;;;;;16.70;15.60;;;18.70;99.90;;;;;;4868276;29;20448;-40
2023/10/12 09:10:49;;;;;;;15.73;14.73;;;18.80;99.90;;;;;;4868739;29;21136;-40
2023/10/12 09:13:28;;;;;;;15.80;14.50;;;18.80;99.90;;;;;;4864546;29;20528;-40
2023/10/12 09:15:55;;;;;;;15.33;14.23;;;18.90;99.90;;;;;;4867592;29;20519;-41
2023/10/12 09:18:29;;;;;;;16.37;15.03;;;18.90;99.90;;;;;;4866053;29;20459;-40
2023/10/12 09:23:30;;;;;;;15.20;14.00;;;18.70;99.90;;;;;;4866760;29;20456;-39
2023/10/12 09:26:14;;;;;;;15.00;13.90;;;18.60;99.90;;;;;;4868246;29;21765;-40
2023/10/12 09:31:15;;;;;;;16.43;15.23;;;18.60;99.90;;;;;;4868407;29;20440;-39
2023/10/12 09:33:45;;;;;;;16.00;14.70;;;18.60;99.90;;;;;;4867091;29;20459;-39
2023/10/12 09:36:14;;;;;;;16.00;14.97;;;18.50;99.90;;;;;;4867585;29;20487;-39
2023/10/12 09:38:40;;;;;;;15.80;14.60;;;18.50;99.90;;;;;;4865127;29;20487;-44
2023/10/12 09:41:09;;;;;;;15.73;14.53;;;18.40;99.90;;;;;;4868155;29;20464;-41
2023/10/12 09:43:39;;;;;;;14.67;13.67;;;18.30;99.90;;;;;;4866679;29;20495;-39
2023/10/12 09:46:09;;;;;;;16.53;15.13;;;18.30;99.90;;;;;;4867772;29;20452;-40
2023/10/12 09:48:38;;;;;;;16.50;15.40;;;18.30;99.90;;;;;;4868279;29;20432;-38
2023/10/12 09:51:06;;;;;;;16.63;15.43;;;18.20;99.90;;;;;;4868302;29;20723;-39
2023/10/12 09:53:43;;;;;;;16.23;15.03;;;18.10;99.90;;;;;;4865089;29;20444;-40
2023/10/12 09:56:24;;;;;;;15.83;14.83;;;18.10;99.90;;;;;;4866782;29;20876;-40
2023/10/12 09:59:03;;;;;;;17.40;16.10;;;18.00;99.90;;;;;;4866607;29;20428;-40
2023/10/12 10:01:49;;;;;;;16.93;15.67;;;17.90;99.90;;;;;;4866596;29;20464;-41
2023/10/12 10:07:15;;;;;;;17.90;16.47;;;17.80;99.90;;;;;;4865537;29;20455;-40
2023/10/12 10:09:46;;;;;;;17.53;16.33;;;17.80;99.90;;;;;;4866029;29;21097;-39
2023/10/12 10:12:16;;;;;;;17.63;16.50;;;17.80;99.90;;;;;;4867260;29;20432;-40
2023/10/12 10:14:45;;;;;;;18.90;17.40;;;17.70;99.90;;;;;;4866739;29;20932;-40
2023/10/12 10:17:14;;;;;;;17.23;16.13;;;17.80;99.90;;;;;;4866774;29;20900;-42
2023/10/12 10:19:43;;;;;;;16.60;15.60;;;17.80;99.90;;;;;;4867206;29;20443;-39
2023/10/12 10:22:14;;;;;;;16.27;15.17;;;17.80;99.90;;;;;;4867495;29;20539;-39
2023/10/12 10:24:52;;;;;;;14.80;13.50;;;17.90;99.90;;;;;;4866868;29;20933;-39
2023/10/12 10:27:18;;;;;;;14.37;13.33;;;17.90;99.90;;;;;;4867381;29;20431;-39
2023/10/12 10:29:52;;;;;;;14.10;13.20;;;18.00;99.90;;;;;;4867393;29;20440;-40
2023/10/12 10:32:22;;;;;;;14.20;13.00;;;18.10;99.90;;;;;;4865314;29;20447;-39
2023/10/12 10:34:47;;;;;;;13.80;12.93;;;18.20;99.90;;;;;;4865251;29;20456;-39
2023/10/12 10:37:47;;;;;;;14.13;12.93;;;18.30;99.90;;;;;;4867153;29;20469;-39
2023/10/12 10:40:20;;;;;;;13.83;12.93;;;18.40;99.90;;;;;;4866797;29;20373;-39
2023/10/12 10:43:04;;;;;;;13.43;12.63;;;18.60;99.90;;;;;;4864343;29;20428;-47
2023/10/12 10:45:34;;;;;;;12.90;12.20;;;18.70;99.90;;;;;;4861441;29;20706;-51
2023/10/12 10:48:03;;;;;;;14.03;13.00;;;18.70;99.90;;;;;;4865771;29;21100;-51
2023/10/12 10:50:33;;;;;;;14.20;13.20;;;18.70;99.90;;;;;;4865345;29;20961;-51
2023/10/12 10:52:59;;;;;;;12.83;12.00;;;18.80;99.90;;;;;;4867373;29;20770;-50
2023/10/12 10:55:30;;;;;;;13.20;12.10;;;18.90;99.90;;;;;;4863391;29;20523;-53
2023/10/12 10:57:57;;;;;;;14.03;13.10;;;18.90;99.90;;;;;;4865211;29;20488;-51
2023/10/12 11:00:33;;;;;;;13.23;12.50;;;18.90;99.90;;;;;;4866913;29;21531;-50
2023/10/12 11:03:05;;;;;;;12.47;11.67;;;19.00;99.90;;;;;;4865143;29;20446;-50
2023/10/12 11:05:33;;;;;;;13.07;12.17;;;19.00;99.90;;;;;;4866908;29;20451;-41
2023/10/12 11:08:19;;;;;;;13.23;12.43;;;19.10;99.90;;;;;;4866021;29;20451;-40
2023/10/12 11:13:32;;;;;;;13.13;12.00;;;19.00;99.90;;;;;;4866253;29;20451;-40
2023/10/12 11:16:03;;;;;;;12.50;11.80;;;19.00;99.90;;;;;;4866385;29;20439;-40
2023/10/12 11:18:29;;;;;;;12.20;11.50;;;19.00;99.90;;;;;;4864518;29;20428;-40
2023/10/12 11:21:00;;;;;;;13.10;12.30;;;19.10;99.90;;;;;;4866308;29;20429;-43
2023/10/12 11:23:26;;;;;;;13.07;12.30;;;19.10;99.90;;;;;;4866107;29;20452;-41
2023/10/12 11:26:04;;;;;;;13.10;12.20;;;19.00;99.90;;;;;;4867463;29;20431;-39
2023/10/12 11:28:30;;;;;;;12.67;11.87;;;19.00;99.90;;;;;;4865780;29;20430;-39
2023/10/12 11:31:02;;;;;;;13.30;12.30;;;18.90;99.90;;;;;;4867237;29;21124;-40
2023/10/12 11:33:28;;;;;;;12.30;11.50;;;19.00;99.90;;;;;;4867248;29;20472;-39
2023/10/12 11:36:00;;;;;;;13.33;12.40;;;19.00;99.90;;;;;;4866721;29;20436;-40
2023/10/12 11:38:27;;;;;;;13.17;12.27;;;18.80;99.90;;;;;;4865474;29;20974;-39
2023/10/12 11:40:53;;;;;;;13.20;12.00;;;18.90;99.90;;;;;;4866319;29;21690;-39
2023/10/12 11:43:21;;;;;;;11.43;10.60;;;18.80;99.90;;;;;;4863781;29;20436;-39
2023/10/12 11:46:14;;;;;;;12.53;11.73;;;18.80;99.90;;;;;;4865467;29;20440;-40
2023/10/12 11:48:40;;;;;;;13.00;12.10;;;18.70;99.90;;;;;;4864667;29;21693;-39
2023/10/12 11:51:13;;;;;;;12.60;11.90;;;18.70;99.90;;;;;;4866564;29;20436;-40
2023/10/12 11:53:39;;;;;;;13.20;12.20;;;18.60;99.90;;;;;;4865372;29;20294;-39
2023/10/12 11:56:11;;;;;;;12.00;11.30;;;18.70;99.90;;;;;;4865966;29;20443;-41
2023/10/12 11:58:37;;;;;;;12.27;11.37;;;18.60;99.90;;;;;;4866136;29;21465;-39
2023/10/12 12:01:02;;;;;;;13.03;12.00;;;18.60;99.90;;;;;;4866922;29;20436;-40
2023/10/12 12:03:29;;;;;;;12.80;12.10;;;18.50;99.90;;;;;;4865247;29;20651;-39
2023/10/12 12:05:54;;;;;;;13.03;12.03;;;18.40;99.90;;;;;;4865171;29;20194;-39
2023/10/12 12:08:24;;;;;;;13.00;11.90;;;18.50;99.90;;;;;;4864818;29;20448;-39
2023/10/12 12:13:20;;;;;;;13.73;12.70;;;18.50;99.90;;;;;;4863981;29;20448;-39
2023/10/12 12:15:46;;;;;;;13.47;12.57;;;18.40;99.90;;;;;;4863783;29;20439;-39
2023/10/12 12:18:19;;;;;;;14.80;13.70;;;18.30;99.90;;;;;;4864615;29;20571;-39
2023/10/12 12:21:02;;;;;;;13.20;12.30;;;18.30;99.90;;;;;;4865377;29;20441;-40
2023/10/12 12:23:33;;;;;;;13.00;12.30;;;18.30;99.90;;;;;;4863691;29;20436;-42
2023/10/12 12:26:07;;;;;;;13.93;12.97;;;18.30;99.90;;;;;;4866791;29;21668;-39
2023/10/12 12:28:33;;;;;;;13.53;12.43;;;18.30;99.90;;;;;;4862747;29;20443;-40
2023/10/12 12:31:04;;;;;;;12.50;11.70;;;18.30;99.90;;;;;;4866015;29;20453;-39
2023/10/12 12:33:30;;;;;;;13.70;12.90;;;18.30;99.90;;;;;;4862121;29;20200;-40
2023/10/12 12:36:04;;;;;;;12.50;11.70;;;18.30;99.90;;;;;;4869110;29;20436;-40
2023/10/12 12:40:59;;;;;;;12.87;11.90;;;18.40;99.90;;;;;;4868344;29;20523;-39
2023/10/12 12:43:25;;;;;;;12.80;11.80;;;18.40;99.90;;;;;;4870688;29;20448;-39
2023/10/12 12:45:52;;;;;;;13.40;12.47;;;18.30;99.90;;;;;;4868923;29;20444;-39
2023/10/12 12:48:19;;;;;;;13.70;12.63;;;18.40;99.90;;;;;;4869811;29;20203;-40
2023/10/12 12:50:47;;;;;;;13.33;12.33;;;18.40;99.90;;;;;;4870593;29;20433;-40
2023/10/12 12:53:18;;;;;;;12.53;11.63;;;18.40;99.90;;;;;;4868504;29;20448;-39
2023/10/12 12:55:46;;;;;;;13.37;12.40;;;18.40;99.90;;;;;;4869560;29;20444;-39
2023/10/12 12:58:15;;;;;;;13.83;13.03;;;18.40;99.90;;;;;;4870136;29;20476;-39
2023/10/12 13:00:48;;;;;;;13.60;12.30;;;18.40;99.90;;;;;;4870259;29;20885;-40
2023/10/12 13:03:15;;;;;;;13.60;12.50;;;18.40;99.90;;;;;;4870379;29;21006;-41
2023/10/12 13:05:41;;;;;;;13.70;12.87;;;18.40;99.90;;;;;;4864385;29;20440;-40
2023/10/12 13:08:07;;;;;;;12.73;11.83;;;18.30;99.90;;;;;;4869572;29;20455;-40
2023/10/12 13:10:34;;;;;;;13.30;12.50;;;18.40;99.90;;;;;;4870408;29;20278;-40
2023/10/12 13:13:01;;;;;;;13.43;12.43;;;18.40;99.90;;;;;;4869981;29;20440;-40
2023/10/12 13:15:26;;;;;;;12.63;11.87;;;18.40;99.90;;;;;;4861885;29;20483;-40
2023/10/12 13:17:52;;;;;;;16.83;12.67;;;18.30;99.90;;;;;;4869335;29;20586;-41
2023/10/12 13:20:39;;;;;;;13.63;12.83;;;18.30;99.90;;;;;;4869374;29;20669;-40
2023/10/12 13:23:09;;;;;;;12.93;12.13;;;18.20;99.90;;;;;;4867632;29;20331;-41
2023/10/12 13:25:36;;;;;;;13.27;12.33;;;18.20;99.90;;;;;;4866385;29;20445;-40
2023/10/12 13:28:01;;;;;;;12.90;12.00;;;18.10;99.90;;;;;;4868038;29;21014;-39
2023/10/12 13:30:27;;;;;;;12.87;11.97;;;18.20;99.90;;;;;;4866512;29;20459;-39
2023/10/12 13:32:59;;;;;;;12.37;11.60;;;18.20;99.90;;;;;;4867781;29;20223;-39
2023/10/12 13:35:31;;;;;;;13.13;12.10;;;18.20;99.90;;;;;;4868713;29;21431;-39
2023/10/12 13:38:02;;;;;;;12.53;11.63;;;18.20;99.90;;;;;;4869293;29;20482;-40
2023/10/12 13:40:31;;;;;;;12.07;11.17;;;18.10;99.90;;;;;;4869152;29;20476;-39
2023/10/12 13:43:06;;;;;;;12.90;12.03;;;18.20;99.90;;;;;;4864984;29;20507;-39
2023/10/12 13:45:32;;;;;;;13.53;12.47;;;18.10;99.90;;;;;;4868025;29;20452;-39
2023/10/12 13:47:58;;;;;;;13.20;12.47;;;18.20;99.90;;;;;;4868546;29;20963;-40
2023/10/12 13:50:23;;;;;;;13.43;12.53;;;18.20;99.90;;;;;;4867362;29;20436;-40
2023/10/12 13:52:49;;;;;;;12.70;11.77;;;18.10;99.90;;;;;;4868768;29;20195;-40
2023/10/12 13:55:15;;;;;;;13.70;12.60;;;18.20;99.90;;;;;;4864132;29;20192;-39
2023/10/12 13:57:55;;;;;;;13.70;12.80;;;18.20;99.90;;;;;;4867972;29;20552;-41
2023/10/12 14:00:25;;;;;;;14.50;13.57;;;18.20;99.90;;;;;;4867643;29;20377;-39
2023/10/12 14:02:56;;;;;;;14.53;13.57;;;18.30;99.90;;;;;;4868914;29;20930;-39
2023/10/12 14:05:29;;;;;;;13.93;12.93;;;18.30;99.90;;;;;;4869257;29;20436;-40
2023/10/12 14:07:58;;;;;;;15.77;14.17;;;18.30;99.90;;;;;;4868932;29;20455;-40
2023/10/12 14:10:26;;;;;;;14.30;13.20;;;18.30;99.90;;;;;;4865406;29;20441;-44
2023/10/12 14:12:53;;;;;;;14.10;13.13;;;18.30;99.90;;;;;;4868820;29;21330;-40
2023/10/12 14:15:29;;;;;;;15.27;14.17;;;18.30;99.90;;;;;;4863814;29;20448;-40
2023/10/12 14:17:54;;;;;;;14.03;13.03;;;18.20;99.90;;;;;;4864197;29;20561;-40
2023/10/12 14:20:29;;;;;;;14.07;13.07;;;18.30;99.90;;;;;;4868449;29;20432;-40
2023/10/12 14:23:05;;;;;;;12.33;11.63;;;18.30;99.90;;;;;;4860794;29;20266;-39
2023/10/12 14:25:35;;;;;;;13.60;12.80;;;18.20;99.90;;;;;;4866746;29;20428;-41
2023/10/12 14:28:05;;;;;;;14.53;13.53;;;18.30;99.90;;;;;;4868004;29;20439;-38
2023/10/12 14:30:30;;;;;;;14.47;13.47;;;18.30;99.90;;;;;;4866386;29;20436;-40
2023/10/12 14:33:02;;;;;;;13.10;12.20;;;18.40;99.90;;;;;;4865824;29;20459;-41